Time;durP1;ratioP1;P1;durP2;ratioP2;P2;SDS_P1;SDS_P2;PMS_P1;PMS_P2;Temp;Humidity;BMP_temperature;BMP_pressure;BME280_temperature;BME280_humidity;BME280_pressure;Samples;Min_cycle;Max_cycle;Signal;HPM_P1;HPM_P2
2023/09/05 00:02:19;;;;;;;3.57;3.30;;;;;;;;;;6215789;23;20484;-60
2023/09/05 00:04:47;;;;;;;3.63;3.43;;;;;;;;;;6217117;23;20523;-60
2023/09/05 00:07:14;;;;;;;3.10;3.00;;;;;;;;;;6217836;23;20405;-60
2023/09/05 00:09:41;;;;;;;3.77;3.40;;;;;;;;;;6217850;23;20409;-60
2023/09/05 00:12:08;;;;;;;3.47;3.27;;;;;;;;;;6217960;23;20484;-60
2023/09/05 00:14:37;;;;;;;3.57;3.37;;;;;;;;;;6217786;23;20717;-60
2023/09/05 00:17:05;;;;;;;4.13;3.83;;;;;;;;;;6217833;23;20492;-60
2023/09/05 00:19:32;;;;;;;3.77;3.47;;;;;;;;;;6217711;23;20428;-60
2023/09/05 00:21:59;;;;;;;3.67;3.47;;;;;;;;;;6217926;23;20443;-60
2023/09/05 00:24:32;;;;;;;3.80;3.50;;;;;;;;;;6217383;23;20507;-60
2023/09/05 00:26:59;;;;;;;3.87;3.57;;;;;;;;;;6227853;23;20394;-60
2023/09/05 00:29:27;;;;;;;3.40;3.10;;;;;;;;;;6217829;23;20792;-60
2023/09/05 00:31:54;;;;;;;4.40;3.50;;;;;;;;;;6217689;23;20691;-60
2023/09/05 00:34:22;;;;;;;3.80;3.50;;;;;;;;;;6217674;23;20794;-60
2023/09/05 00:36:52;;;;;;;3.60;3.40;;;;;;;;;;6217603;23;20543;-60
2023/09/05 00:39:19;;;;;;;3.80;3.60;;;;;;;;;;6217528;23;20404;-60
2023/09/05 00:41:46;;;;;;;3.63;3.33;;;;;;;;;;6217586;23;20400;-60
2023/09/05 00:44:14;;;;;;;3.60;3.30;;;;;;;;;;6217451;23;20401;-60
2023/09/05 00:46:41;;;;;;;3.57;3.37;;;;;;;;;;6217627;23;20793;-60
2023/09/05 00:49:10;;;;;;;7.73;4.50;;;;;;;;;;6217211;23;20401;-61
2023/09/05 00:51:39;;;;;;;4.03;3.80;;;;;;;;;;6217460;23;20709;-60
2023/09/05 00:54:07;;;;;;;3.93;3.60;;;;;;;;;;6216778;23;20424;-60
2023/09/05 00:56:35;;;;;;;3.70;3.50;;;;;;;;;;6217420;23;20401;-60
2023/09/05 00:59:02;;;;;;;3.50;3.20;;;;;;;;;;6217456;23;20471;-61
2023/09/05 01:01:29;;;;;;;3.63;3.43;;;;;;;;;;6217491;23;20451;-60
2023/09/05 01:03:57;;;;;;;3.73;3.43;;;;;;;;;;6216947;23;20936;-60
2023/09/05 01:06:31;;;;;;;5.57;4.20;;;;;;;;;;6217307;23;20444;-60
2023/09/05 01:09:03;;;;;;;3.53;3.33;;;;;;;;;;6227357;23;20393;-60
2023/09/05 01:11:31;;;;;;;3.63;3.33;;;;;;;;;;6227306;23;20385;-60
2023/09/05 01:13:58;;;;;;;3.40;3.00;;;;;;;;;;6217235;23;20474;-60
2023/09/05 01:16:25;;;;;;;3.60;3.40;;;;;;;;;;6217291;23;20484;-60
2023/09/05 01:18:51;;;;;;;3.90;3.70;;;;;;;;;;6217186;23;20405;-60
2023/09/05 01:21:23;;;;;;;4.00;3.70;;;;;;;;;;6217304;23;20489;-60
2023/09/05 01:23:52;;;;;;;3.60;3.40;;;;;;;;;;6227058;23;20480;-60
2023/09/05 01:26:20;;;;;;;4.40;3.50;;;;;;;;;;6216966;23;20472;-60
2023/09/05 01:28:49;;;;;;;4.00;3.70;;;;;;;;;;6217100;23;20491;-60
2023/09/05 01:31:17;;;;;;;3.77;3.40;;;;;;;;;;6217040;23;20408;-60
2023/09/05 01:33:44;;;;;;;3.40;3.20;;;;;;;;;;6216957;23;20508;-60
2023/09/05 01:36:11;;;;;;;3.70;3.40;;;;;;;;;;6217073;23;20492;-60
2023/09/05 01:38:38;;;;;;;4.63;3.27;;;;;;;;;;6217100;23;20401;-60
2023/09/05 01:41:05;;;;;;;4.10;3.80;;;;;;;;;;6217087;23;20429;-60
2023/09/05 01:43:33;;;;;;;3.33;3.13;;;;;;;;;;6216662;23;20956;-60
2023/09/05 01:46:00;;;;;;;4.00;3.70;;;;;;;;;;6217227;23;20487;-60
2023/09/05 01:48:27;;;;;;;3.60;3.40;;;;;;;;;;6217023;23;20789;-60
2023/09/05 01:50:54;;;;;;;5.43;4.00;;;;;;;;;;6216925;23;20724;-60
2023/09/05 01:53:23;;;;;;;4.00;3.57;;;;;;;;;;6216393;23;20507;-60
2023/09/05 01:55:50;;;;;;;4.37;4.07;;;;;;;;;;6216780;23;20463;-60
2023/09/05 01:58:17;;;;;;;3.70;3.50;;;;;;;;;;6216955;23;20816;-60
2023/09/05 02:00:45;;;;;;;4.70;4.30;;;;;;;;;;6216932;23;20427;-60
2023/09/05 02:03:12;;;;;;;3.70;3.40;;;;;;;;;;6216632;23;20488;-60
2023/09/05 02:05:39;;;;;;;3.70;3.50;;;;;;;;;;6216765;23;20524;-60
2023/09/05 02:08:06;;;;;;;3.80;3.60;;;;;;;;;;6216789;23;20491;-60
2023/09/05 02:10:33;;;;;;;3.73;3.43;;;;;;;;;;6216873;23;20488;-60
2023/09/05 02:13:00;;;;;;;4.27;3.87;;;;;;;;;;6216795;23;20973;-60
2023/09/05 02:15:27;;;;;;;3.77;3.57;;;;;;;;;;6216721;23;20480;-60
2023/09/05 02:17:55;;;;;;;3.93;3.73;;;;;;;;;;6216769;23;20409;-60
2023/09/05 02:20:23;;;;;;;3.83;3.63;;;;;;;;;;6216589;23;20412;-60
2023/09/05 02:22:50;;;;;;;3.20;3.00;;;;;;;;;;6216217;23;20887;-60
2023/09/05 02:25:17;;;;;;;4.07;3.83;;;;;;;;;;6216513;23;20504;-59
2023/09/05 02:27:44;;;;;;;3.47;3.17;;;;;;;;;;6216418;23;20492;-60
2023/09/05 02:30:11;;;;;;;3.93;3.53;;;;;;;;;;6216671;23;20488;-60
2023/09/05 02:32:38;;;;;;;3.83;3.60;;;;;;;;;;6216463;23;20455;-60
2023/09/05 02:35:06;;;;;;;3.60;3.40;;;;;;;;;;6216562;23;20496;-60
2023/09/05 02:37:33;;;;;;;4.13;3.83;;;;;;;;;;6216314;23;20485;-60
2023/09/05 02:40:00;;;;;;;3.07;2.87;;;;;;;;;;6216596;23;20488;-60
2023/09/05 02:42:27;;;;;;;3.70;3.40;;;;;;;;;;6216512;23;20501;-60
2023/09/05 02:44:54;;;;;;;4.90;4.50;;;;;;;;;;6216302;23;20555;-59
2023/09/05 02:47:22;;;;;;;3.70;3.40;;;;;;;;;;6216523;23;20786;-60
2023/09/05 02:49:49;;;;;;;3.97;3.67;;;;;;;;;;6216385;23;20437;-60
2023/09/05 02:52:21;;;;;;;3.30;3.10;;;;;;;;;;6216190;23;20504;-59
2023/09/05 02:54:48;;;;;;;4.33;4.10;;;;;;;;;;6226051;23;20397;-60
2023/09/05 02:57:15;;;;;;;3.90;3.70;;;;;;;;;;6216328;23;20516;-60
2023/09/05 02:59:42;;;;;;;4.60;4.20;;;;;;;;;;6216393;23;20492;-60
2023/09/05 03:02:09;;;;;;;4.10;3.80;;;;;;;;;;6216287;23;20770;-60
2023/09/05 03:04:35;;;;;;;3.40;3.20;;;;;;;;;;6216125;23;20488;-60
2023/09/05 03:07:03;;;;;;;4.07;3.67;;;;;;;;;;6216160;23;20523;-60
2023/09/05 03:09:31;;;;;;;4.67;4.27;;;;;;;;;;6216248;23;20794;-59
2023/09/05 03:11:58;;;;;;;4.60;4.20;;;;;;;;;;6216177;23;20492;-60
2023/09/05 03:14:25;;;;;;;4.27;3.97;;;;;;;;;;6216003;23;20405;-60
2023/09/05 03:16:52;;;;;;;3.90;3.60;;;;;;;;;;6216188;23;20507;-60
2023/09/05 03:19:21;;;;;;;5.83;4.80;;;;;;;;;;6216081;23;20484;-60
2023/09/05 03:21:48;;;;;;;4.13;3.83;;;;;;;;;;6215972;23;20409;-60
2023/09/05 03:24:17;;;;;;;3.97;3.67;;;;;;;;;;6215986;23;20488;-60
2023/09/05 03:26:46;;;;;;;4.07;3.70;;;;;;;;;;6215772;23;20465;-60
2023/09/05 03:29:13;;;;;;;3.70;3.43;;;;;;;;;;6215986;23;20439;-60
2023/09/05 03:31:40;;;;;;;4.27;3.97;;;;;;;;;;6215874;23;20447;-60
2023/09/05 03:34:07;;;;;;;5.40;3.00;;;;;;;;;;6215907;23;20500;-60
2023/09/05 03:36:34;;;;;;;3.83;3.43;;;;;;;;;;6215978;23;20405;-60
2023/09/05 03:39:01;;;;;;;3.60;3.40;;;;;;;;;;6215156;23;21061;-60
2023/09/05 03:41:28;;;;;;;4.60;3.63;;;;;;;;;;6215988;23;20433;-60
2023/09/05 03:43:56;;;;;;;3.77;3.47;;;;;;;;;;6215817;23;20496;-60
2023/09/05 03:46:23;;;;;;;4.13;3.57;;;;;;;;;;6215850;23;20825;-60
2023/09/05 03:48:52;;;;;;;3.67;3.47;;;;;;;;;;6215918;23;20492;-59
2023/09/05 03:51:18;;;;;;;4.77;4.23;;;;;;;;;;6215783;23;20405;-59
2023/09/05 03:53:45;;;;;;;4.10;3.70;;;;;;;;;;6215258;23;20948;-60
2023/09/05 03:56:12;;;;;;;4.67;4.33;;;;;;;;;;6215876;23;20436;-60
2023/09/05 03:58:39;;;;;;;4.23;3.50;;;;;;;;;;6215855;23;20755;-60
2023/09/05 04:01:13;;;;;;;5.97;3.83;;;;;;;;;;6215469;23;20935;-60
2023/09/05 04:03:40;;;;;;;4.10;3.73;;;;;;;;;;6225678;23;20480;-60
2023/09/05 04:06:07;;;;;;;3.87;3.57;;;;;;;;;;6215714;23;20516;-60
2023/09/05 04:08:33;;;;;;;3.57;3.33;;;;;;;;;;6215956;23;20459;-59
2023/09/05 04:11:01;;;;;;;5.43;4.37;;;;;;;;;;6215904;23;20432;-60
2023/09/05 04:13:28;;;;;;;5.93;3.70;;;;;;;;;;6215662;23;20789;-60
2023/09/05 04:15:55;;;;;;;4.23;3.93;;;;;;;;;;6215961;23;20491;-60
2023/09/05 04:18:24;;;;;;;4.77;4.47;;;;;;;;;;6215918;23;20437;-60
2023/09/05 04:20:57;;;;;;;3.90;3.60;;;;;;;;;;6215731;23;20492;-60
2023/09/05 04:23:24;;;;;;;6.10;4.10;;;;;;;;;;6225510;23;20927;-60
2023/09/05 04:25:57;;;;;;;4.47;4.07;;;;;;;;;;6215309;23;20998;-60
2023/09/05 04:28:25;;;;;;;4.10;3.80;;;;;;;;;;6225662;23;20718;-59
2023/09/05 04:30:55;;;;;;;4.60;4.20;;;;;;;;;;6215726;23;20773;-60
2023/09/05 04:33:24;;;;;;;4.40;4.10;;;;;;;;;;6225485;23;20403;-60
2023/09/05 04:35:51;;;;;;;4.10;3.77;;;;;;;;;;6215230;23;20880;-60
2023/09/05 04:38:18;;;;;;;5.93;4.57;;;;;;;;;;6215965;23;20496;-60
2023/09/05 04:40:45;;;;;;;4.77;4.37;;;;;;;;;;6215727;23;20405;-60
2023/09/05 04:43:12;;;;;;;4.83;3.90;;;;;;;;;;6215624;23;20433;-60
2023/09/05 04:45:39;;;;;;;5.63;5.00;;;;;;;;;;6215514;23;20520;-60
2023/09/05 04:48:06;;;;;;;4.63;3.90;;;;;;;;;;6215285;23;20947;-60
2023/09/05 04:50:34;;;;;;;3.47;3.23;;;;;;;;;;6216684;23;20428;-60
2023/09/05 04:53:01;;;;;;;4.37;4.07;;;;;;;;;;6216894;23;20515;-60
2023/09/05 04:55:28;;;;;;;5.00;4.23;;;;;;;;;;6217453;23;20489;-60
2023/09/05 04:57:55;;;;;;;4.40;4.03;;;;;;;;;;6217455;23;20523;-60
2023/09/05 05:00:23;;;;;;;7.00;4.40;;;;;;;;;;6217494;23;20483;-60
2023/09/05 05:02:51;;;;;;;3.97;3.60;;;;;;;;;;6216752;23;20409;-59
2023/09/05 05:05:18;;;;;;;5.77;4.30;;;;;;;;;;6217314;23;20716;-60
2023/09/05 05:07:46;;;;;;;5.27;4.30;;;;;;;;;;6217326;23;20487;-60
2023/09/05 05:10:13;;;;;;;4.10;3.80;;;;;;;;;;6217238;23;20876;-60
2023/09/05 05:12:40;;;;;;;3.70;3.50;;;;;;;;;;6217295;23;20405;-60
2023/09/05 05:15:08;;;;;;;3.80;3.60;;;;;;;;;;6217258;23;20410;-60
2023/09/05 05:17:35;;;;;;;4.20;3.40;;;;;;;;;;6217067;23;20524;-60
2023/09/05 05:20:03;;;;;;;6.23;4.87;;;;;;;;;;6217138;23;20492;-59
2023/09/05 05:22:30;;;;;;;4.23;3.93;;;;;;;;;;6217073;23;20413;-60
2023/09/05 05:24:58;;;;;;;4.20;3.80;;;;;;;;;;6217184;23;20496;-59
2023/09/05 05:27:25;;;;;;;4.10;3.80;;;;;;;;;;6216777;23;20527;-60
2023/09/05 05:29:52;;;;;;;5.80;5.30;;;;;;;;;;6216933;23;20492;-60
2023/09/05 05:32:19;;;;;;;10.03;5.67;;;;;;;;;;6217093;23;20488;-60
2023/09/05 05:34:48;;;;;;;4.70;4.27;;;;;;;;;;6217028;23;20437;-60
2023/09/05 05:37:15;;;;;;;5.00;4.50;;;;;;;;;;6216815;23;20405;-60
2023/09/05 05:39:42;;;;;;;4.90;4.60;;;;;;;;;;6216946;23;20496;-60
2023/09/05 05:42:10;;;;;;;4.73;4.43;;;;;;;;;;6216962;23;20433;-60
2023/09/05 05:44:37;;;;;;;6.77;4.80;;;;;;;;;;6216728;23;20406;-60
2023/09/05 05:47:04;;;;;;;5.33;4.83;;;;;;;;;;6216876;23;20528;-60
2023/09/05 05:49:31;;;;;;;3.77;3.47;;;;;;;;;;6216942;23;20480;-60
2023/09/05 05:51:58;;;;;;;5.00;4.60;;;;;;;;;;6216662;23;20406;-60
2023/09/05 05:54:25;;;;;;;4.10;3.80;;;;;;;;;;6226649;23;20889;-61
2023/09/05 05:56:52;;;;;;;3.87;3.53;;;;;;;;;;6216730;23;20501;-60
2023/09/05 05:59:20;;;;;;;3.40;3.20;;;;;;;;;;6216713;23;20489;-60
2023/09/05 06:01:47;;;;;;;3.87;3.00;;;;;;;;;;6216232;23;20496;-60
2023/09/05 06:04:15;;;;;;;3.53;3.30;;;;;;;;;;6216535;23;20405;-60
2023/09/05 06:06:42;;;;;;;4.47;4.00;;;;;;;;;;6216493;23;20468;-60
2023/09/05 06:09:09;;;;;;;4.63;3.50;;;;;;;;;;6216635;23;20464;-60
2023/09/05 06:11:36;;;;;;;3.10;2.90;;;;;;;;;;6216561;23;20488;-60
2023/09/05 06:14:03;;;;;;;3.57;3.27;;;;;;;;;;6216606;23;20446;-60
2023/09/05 06:16:31;;;;;;;3.47;3.07;;;;;;;;;;6216707;23;20491;-60
2023/09/05 06:18:58;;;;;;;2.93;2.73;;;;;;;;;;6216475;23;20537;-60
2023/09/05 06:21:25;;;;;;;3.17;2.87;;;;;;;;;;6216635;23;20480;-60
2023/09/05 06:23:52;;;;;;;2.70;2.50;;;;;;;;;;6216512;23;20405;-60
2023/09/05 06:26:19;;;;;;;3.20;3.00;;;;;;;;;;6216391;23;20508;-60
2023/09/05 06:28:47;;;;;;;2.80;2.60;;;;;;;;;;6216709;23;20487;-60
2023/09/05 06:31:14;;;;;;;3.40;3.20;;;;;;;;;;6216194;23;20441;-60
2023/09/05 06:33:42;;;;;;;4.80;3.10;;;;;;;;;;6216291;23;20792;-60
2023/09/05 06:36:11;;;;;;;3.30;2.90;;;;;;;;;;6216275;23;20798;-60
2023/09/05 06:38:39;;;;;;;4.13;3.07;;;;;;;;;;6216147;23;20404;-60
2023/09/05 06:41:06;;;;;;;3.50;2.90;;;;;;;;;;6216519;23;20884;-60
2023/09/05 06:43:33;;;;;;;3.20;3.00;;;;;;;;;;6216215;23;20405;-60
2023/09/05 06:46:04;;;;;;;2.63;2.53;;;;;;;;;;6216184;23;20487;-60
2023/09/05 06:48:31;;;;;;;3.93;3.63;;;;;;;;;;6216046;23;20433;-60
2023/09/05 06:50:59;;;;;;;3.90;3.30;;;;;;;;;;6216074;23;20444;-60
2023/09/05 06:53:26;;;;;;;3.83;3.30;;;;;;;;;;6215591;23;20439;-60
2023/09/05 06:55:53;;;;;;;4.23;3.60;;;;;;;;;;6216126;23;20491;-60
2023/09/05 06:58:22;;;;;;;2.93;2.73;;;;;;;;;;6216190;23;20440;-60
2023/09/05 07:00:53;;;;;;;3.03;2.73;;;;;;;;;;6216137;23;20412;-60
2023/09/05 07:03:20;;;;;;;2.70;2.50;;;;;;;;;;6226029;23;20394;-60
2023/09/05 07:05:47;;;;;;;3.13;2.93;;;;;;;;;;6216191;23;20405;-60
2023/09/05 07:08:15;;;;;;;2.70;2.50;;;;;;;;;;6216019;23;20519;-60
2023/09/05 07:10:42;;;;;;;3.77;3.00;;;;;;;;;;6215933;23;20495;-60
2023/09/05 07:13:09;;;;;;;2.90;2.70;;;;;;;;;;6215523;23;20487;-60
2023/09/05 07:15:36;;;;;;;2.53;2.33;;;;;;;;;;6216104;23;20526;-60
2023/09/05 07:18:03;;;;;;;2.90;2.70;;;;;;;;;;6216121;23;20412;-60
2023/09/05 07:20:31;;;;;;;3.00;2.80;;;;;;;;;;6216021;23;20406;-60
2023/09/05 07:22:58;;;;;;;2.83;2.63;;;;;;;;;;6215848;23;20463;-60
2023/09/05 07:25:26;;;;;;;2.60;2.40;;;;;;;;;;6215985;23;20488;-60
2023/09/05 07:27:53;;;;;;;2.97;2.77;;;;;;;;;;6215686;23;20514;-60
2023/09/05 07:30:20;;;;;;;2.60;2.50;;;;;;;;;;6215587;23;20944;-60
2023/09/05 07:32:47;;;;;;;2.10;2.00;;;;;;;;;;6215624;23;20488;-62
2023/09/05 07:35:14;;;;;;;2.53;2.30;;;;;;;;;;6215594;23;20970;-61
2023/09/05 07:37:41;;;;;;;2.60;2.40;;;;;;;;;;6215731;23;20493;-61
2023/09/05 07:40:10;;;;;;;3.00;2.80;;;;;;;;;;6215887;23;20777;-60
2023/09/05 07:42:39;;;;;;;3.53;3.27;;;;;;;;;;6215721;23;20488;-61
2023/09/05 07:45:06;;;;;;;2.50;2.40;;;;;;;;;;6215835;23;20774;-61
2023/09/05 07:47:33;;;;;;;2.87;2.67;;;;;;;;;;6215687;23;20437;-61
2023/09/05 07:50:00;;;;;;;2.10;2.00;;;;;;;;;;6215888;23;20405;-61
2023/09/05 07:52:27;;;;;;;2.30;2.20;;;;;;;;;;6215532;23;20467;-60
2023/09/05 07:54:54;;;;;;;2.53;2.43;;;;;;;;;;6215890;23;20491;-61
2023/09/05 07:57:21;;;;;;;2.53;2.20;;;;;;;;;;6215890;23;20404;-61
2023/09/05 07:59:50;;;;;;;2.80;2.60;;;;;;;;;;6215786;23;20783;-60
2023/09/05 08:02:16;;;;;;;3.77;2.60;;;;;;;;;;6215539;23;20734;-61
2023/09/05 08:04:43;;;;;;;3.40;2.50;;;;;;;;;;6215757;23;20484;-61
2023/09/05 08:07:11;;;;;;;3.40;2.10;;;;;;;;;;6215657;23;20532;-61
2023/09/05 08:09:37;;;;;;;2.70;2.50;;;;;;;;;;6215764;23;20405;-60
2023/09/05 08:12:05;;;;;;;6.10;2.57;;;;;;;;;;6215727;23;20408;-61
2023/09/05 08:14:32;;;;;;;3.43;3.13;;;;;;;;;;6215650;23;20522;-61
2023/09/05 08:17:00;;;;;;;4.07;2.30;;;;;;;;;;6215722;23;20516;-61
2023/09/05 08:19:27;;;;;;;2.27;2.17;;;;;;;;;;6215657;23;20495;-61
2023/09/05 08:21:54;;;;;;;2.90;2.37;;;;;;;;;;6215119;23;20925;-60
2023/09/05 08:24:21;;;;;;;2.40;2.20;;;;;;;;;;6215912;23;20484;-60
2023/09/05 08:26:47;;;;;;;2.40;2.20;;;;;;;;;;6217697;23;20512;-60
2023/09/05 08:29:14;;;;;;;3.07;2.17;;;;;;;;;;6217714;23;20791;-61
2023/09/05 08:31:41;;;;;;;2.43;2.33;;;;;;;;;;6217520;23;20405;-61
2023/09/05 08:34:10;;;;;;;3.50;2.47;;;;;;;;;;6217589;23;20444;-61
2023/09/05 08:36:37;;;;;;;2.17;2.07;;;;;;;;;;6217547;23;20488;-61
2023/09/05 08:39:04;;;;;;;2.60;2.20;;;;;;;;;;6217507;23;20429;-73
2023/09/05 08:41:32;;;;;;;2.20;2.00;;;;;;;;;;6217466;23;20401;-68
2023/09/05 08:43:58;;;;;;;3.40;2.13;;;;;;;;;;6217526;23;20405;-65
2023/09/05 08:46:26;;;;;;;5.90;2.37;;;;;;;;;;6217402;23;20405;-65
2023/09/05 08:48:52;;;;;;;2.83;2.03;;;;;;;;;;6217599;23;20408;-65
2023/09/05 08:51:22;;;;;;;4.17;2.50;;;;;;;;;;6217375;23;20770;-66
2023/09/05 08:53:52;;;;;;;2.27;2.17;;;;;;;;;;6216501;23;20436;-65
2023/09/05 08:56:19;;;;;;;2.23;1.87;;;;;;;;;;6216777;23;20404;-65
2023/09/05 08:58:46;;;;;;;3.50;2.67;;;;;;;;;;6217157;23;20437;-65
2023/09/05 09:01:13;;;;;;;2.07;1.87;;;;;;;;;;6217153;23;20415;-66
2023/09/05 09:03:40;;;;;;;4.00;2.30;;;;;;;;;;6217043;23;20491;-65
2023/09/05 09:06:07;;;;;;;2.10;2.00;;;;;;;;;;6217227;23;20432;-64
2023/09/05 09:08:43;;;;;;;1.73;1.63;;;;;;;;;;6216918;23;20519;-65
2023/09/05 09:11:10;;;;;;;2.23;2.10;;;;;;;;;;6226953;23;20400;-65
2023/09/05 09:13:37;;;;;;;5.47;4.57;;;;;;;;;;6216893;23;20497;-65
2023/09/05 09:16:04;;;;;;;3.83;2.60;;;;;;;;;;6216978;23;20405;-65
2023/09/05 09:18:32;;;;;;;2.30;2.10;;;;;;;;;;6216863;23;20501;-66
2023/09/05 09:21:03;;;;;;;2.47;2.30;;;;;;;;;;6216826;23;20451;-65
2023/09/05 09:23:30;;;;;;;2.83;1.87;;;;;;;;;;6226750;23;20394;-72
2023/09/05 09:25:58;;;;;;;3.00;2.00;;;;;;;;;;6216542;23;20971;-71
2023/09/05 09:28:28;;;;;;;1.87;1.77;;;;;;;;;;6216759;23;20481;-69
2023/09/05 09:30:57;;;;;;;2.50;2.00;;;;;;;;;;6216727;23;20408;-69
2023/09/05 09:33:24;;;;;;;1.70;1.60;;;;;;;;;;6216686;23;20896;-70
2023/09/05 09:36:04;;;;;;;1.87;1.77;;;;;;;;;;6216871;23;20412;-71
2023/09/05 09:38:31;;;;;;;2.17;2.00;;;;;;;;;;6216816;23;20896;-70
2023/09/05 09:41:01;;;;;;;1.90;1.80;;;;;;;;;;6216839;23;20405;-70
2023/09/05 09:43:28;;;;;;;2.50;2.27;;;;;;;;;;6226481;23;20405;-70
2023/09/05 09:45:56;;;;;;;2.03;1.67;;;;;;;;;;6216831;23;20432;-69
2023/09/05 09:48:26;;;;;;;2.43;1.70;;;;;;;;;;6216556;23;20444;-70
2023/09/05 09:50:53;;;;;;;1.90;1.80;;;;;;;;;;6216712;23;20890;-70
2023/09/05 09:53:26;;;;;;;7.90;1.87;;;;;;;;;;6216313;23;20515;-70
2023/09/05 09:55:53;;;;;;;1.63;1.53;;;;;;;;;;6226839;23;20706;-71
2023/09/05 09:58:23;;;;;;;2.87;1.90;;;;;;;;;;6216851;23;20409;-70
2023/09/05 10:00:50;;;;;;;2.37;2.20;;;;;;;;;;6216585;23;20489;-70
2023/09/05 10:03:17;;;;;;;1.73;1.33;;;;;;;;;;6216651;23;20480;-70
2023/09/05 10:05:45;;;;;;;1.87;1.70;;;;;;;;;;6216356;23;20487;-70
2023/09/05 10:08:12;;;;;;;1.53;1.33;;;;;;;;;;6216718;23;20548;-71
2023/09/05 10:10:39;;;;;;;1.60;1.50;;;;;;;;;;6216726;23;20436;-71
2023/09/05 10:13:07;;;;;;;2.70;1.43;;;;;;;;;;6216508;23;20437;-71
2023/09/05 10:15:37;;;;;;;2.67;1.77;;;;;;;;;;6216577;23;20488;-71
2023/09/05 10:18:04;;;;;;;1.60;1.50;;;;;;;;;;6216534;23;20496;-72
2023/09/05 10:20:32;;;;;;;1.40;1.30;;;;;;;;;;6216708;23;20480;-72
2023/09/05 10:22:59;;;;;;;1.40;1.30;;;;;;;;;;6216552;23;20409;-72
2023/09/05 10:25:27;;;;;;;1.57;1.47;;;;;;;;;;6216636;23;20781;-71
2023/09/05 10:27:54;;;;;;;2.13;1.53;;;;;;;;;;6216395;23;20847;-70
2023/09/05 10:30:21;;;;;;;1.53;1.43;;;;;;;;;;6216528;23;20762;-70
2023/09/05 10:32:50;;;;;;;1.30;1.20;;;;;;;;;;6216363;23;20488;-71
2023/09/05 10:35:18;;;;;;;2.90;2.20;;;;;;;;;;6216255;23;20405;-72
2023/09/05 10:37:46;;;;;;;2.03;1.40;;;;;;;;;;6216322;23;20411;-71
2023/09/05 10:40:13;;;;;;;2.53;1.70;;;;;;;;;;6216308;23;20405;-71
2023/09/05 10:42:44;;;;;;;4.30;1.67;;;;;;;;;;6216243;23;20432;-70
2023/09/05 10:45:19;;;;;;;1.60;1.50;;;;;;;;;;6214931;23;20406;-65
2023/09/05 10:47:48;;;;;;;2.37;1.70;;;;;;;;;;6215893;23;20264;-68
2023/09/05 10:50:19;;;;;;;1.70;1.60;;;;;;;;;;6216360;23;20412;-67
2023/09/05 10:52:49;;;;;;;1.40;1.30;;;;;;;;;;6221793;23;20439;-68
2023/09/05 10:55:39;;;;;;;1.40;1.30;;;;;;;;;;6216043;23;20412;-68
2023/09/05 10:58:26;;;;;;;4.80;1.50;;;;;;;;;;6226124;23;20393;-68
2023/09/05 11:00:53;;;;;;;2.17;1.80;;;;;;;;;;6216075;23;20508;-69
2023/09/05 11:03:20;;;;;;;3.07;1.43;;;;;;;;;;6216183;23;20488;-69
2023/09/05 11:05:50;;;;;;;2.30;1.97;;;;;;;;;;6216248;23;20496;-67
2023/09/05 11:08:21;;;;;;;1.47;1.37;;;;;;;;;;6226004;23;20436;-68
2023/09/05 11:10:50;;;;;;;3.43;1.47;;;;;;;;;;6216137;23;20405;-69
2023/09/05 11:13:17;;;;;;;1.23;1.13;;;;;;;;;;6215996;23;20405;-68
2023/09/05 11:15:44;;;;;;;1.10;1.00;;;;;;;;;;6216062;23;20455;-68
2023/09/05 11:18:12;;;;;;;2.37;1.50;;;;;;;;;;6216108;23;20441;-68
2023/09/05 11:20:39;;;;;;;1.40;1.30;;;;;;;;;;6216087;23;20488;-69
2023/09/05 11:23:15;;;;;;;1.90;1.23;;;;;;;;;;6215930;23;20440;-69
2023/09/05 11:25:43;;;;;;;1.17;1.07;;;;;;;;;;6215799;23;20400;-67
2023/09/05 11:28:10;;;;;;;1.17;1.07;;;;;;;;;;6215630;23;20448;-67
2023/09/05 11:30:37;;;;;;;1.40;1.30;;;;;;;;;;6215729;23;20488;-67
2023/09/05 11:33:07;;;;;;;1.63;1.53;;;;;;;;;;6215816;23;20405;-67
2023/09/05 11:35:35;;;;;;;1.40;1.20;;;;;;;;;;6225477;23;20508;-68
2023/09/05 11:38:03;;;;;;;5.87;1.30;;;;;;;;;;6215476;23;20412;-68
2023/09/05 11:40:31;;;;;;;1.50;1.40;;;;;;;;;;6215642;23;20757;-68
2023/09/05 11:43:03;;;;;;;2.30;1.40;;;;;;;;;;6215306;23;20733;-68
2023/09/05 11:48:14;;;;;;;1.30;1.20;;;;;;;;;;6212535;23;20469;-68
2023/09/05 11:50:42;;;;;;;1.77;1.67;;;;;;;;;;6215220;23;20888;-68
2023/09/05 11:53:10;;;;;;;2.00;1.90;;;;;;;;;;6215002;23;20433;-68
2023/09/05 11:55:38;;;;;;;1.30;1.20;;;;;;;;;;6215694;23;20770;-67
2023/09/05 11:58:06;;;;;;;2.50;1.60;;;;;;;;;;6215711;23;20504;-67
2023/09/05 12:00:33;;;;;;;1.10;1.00;;;;;;;;;;6215353;23;20405;-67
2023/09/05 12:03:01;;;;;;;1.60;1.40;;;;;;;;;;6215697;23;20409;-68
2023/09/05 12:05:28;;;;;;;1.70;1.60;;;;;;;;;;6215631;23;20425;-68
2023/09/05 12:07:55;;;;;;;6.03;4.73;;;;;;;;;;6215686;23;20824;-68
2023/09/05 12:10:24;;;;;;;2.60;1.60;;;;;;;;;;6215744;23;20463;-67
2023/09/05 12:12:57;;;;;;;1.47;1.37;;;;;;;;;;6215556;23;20444;-67
2023/09/05 12:15:31;;;;;;;1.60;1.50;;;;;;;;;;6225533;23;20402;-68
2023/09/05 12:17:59;;;;;;;2.10;1.30;;;;;;;;;;6215743;23;20409;-68
2023/09/05 12:20:26;;;;;;;1.40;1.30;;;;;;;;;;6215413;23;20405;-68
2023/09/05 12:22:53;;;;;;;1.40;1.30;;;;;;;;;;6215553;23;20412;-68
2023/09/05 12:25:24;;;;;;;1.37;1.27;;;;;;;;;;6215468;23;20437;-68
2023/09/05 12:27:51;;;;;;;1.40;1.30;;;;;;;;;;6225341;23;20393;-68
2023/09/05 12:30:26;;;;;;;1.20;1.10;;;;;;;;;;6215729;23;20432;-68
2023/09/05 12:32:55;;;;;;;1.53;1.33;;;;;;;;;;6215549;23;20452;-68
2023/09/05 12:35:22;;;;;;;1.30;1.20;;;;;;;;;;6215495;23;20484;-68
2023/09/05 12:37:49;;;;;;;1.60;1.50;;;;;;;;;;6215278;23;20428;-67
2023/09/05 12:40:16;;;;;;;1.30;1.20;;;;;;;;;;6215710;23;20766;-68
2023/09/05 12:42:44;;;;;;;1.40;1.30;;;;;;;;;;6215747;23;20458;-68
2023/09/05 12:45:11;;;;;;;1.50;1.40;;;;;;;;;;6215579;23;20428;-69
2023/09/05 12:47:40;;;;;;;1.57;1.47;;;;;;;;;;6215511;23;20407;-68
2023/09/05 12:50:11;;;;;;;2.10;1.47;;;;;;;;;;6215332;23;20519;-69
2023/09/05 12:52:38;;;;;;;1.60;1.43;;;;;;;;;;6221343;23;20947;-68
2023/09/05 12:55:06;;;;;;;2.03;1.43;;;;;;;;;;6215177;23;20405;-68
2023/09/05 12:57:33;;;;;;;1.60;1.20;;;;;;;;;;6215483;23;20679;-69
2023/09/05 13:00:00;;;;;;;1.50;1.40;;;;;;;;;;6215561;23;20495;-68
2023/09/05 13:02:27;;;;;;;1.30;1.20;;;;;;;;;;6215536;23;20775;-68
2023/09/05 13:04:55;;;;;;;1.40;1.30;;;;;;;;;;6215429;23;20500;-69
2023/09/05 13:07:23;;;;;;;3.13;1.40;;;;;;;;;;6215377;23;20493;-68
2023/09/05 13:09:50;;;;;;;1.50;1.40;;;;;;;;;;6215444;23;20441;-68
2023/09/05 13:12:17;;;;;;;1.73;1.33;;;;;;;;;;6217204;23;20787;-69
2023/09/05 13:14:45;;;;;;;1.83;1.30;;;;;;;;;;6217159;23;20437;-68
2023/09/05 13:17:12;;;;;;;1.47;1.37;;;;;;;;;;6217105;23;20431;-68
2023/09/05 13:19:40;;;;;;;4.00;1.67;;;;;;;;;;6217069;23;20796;-68
2023/09/05 13:22:09;;;;;;;1.63;1.30;;;;;;;;;;6216996;23;20401;-68
2023/09/05 13:24:36;;;;;;;4.50;1.40;;;;;;;;;;6217059;23;20765;-69
2023/09/05 13:27:03;;;;;;;2.23;1.33;;;;;;;;;;6216956;23;20408;-68
2023/09/05 13:29:30;;;;;;;1.30;1.20;;;;;;;;;;6216879;23;20753;-68
2023/09/05 13:31:58;;;;;;;1.20;1.03;;;;;;;;;;6216865;23;20405;-68
2023/09/05 13:34:26;;;;;;;1.53;1.30;;;;;;;;;;6216934;23;20409;-68
2023/09/05 13:36:53;;;;;;;1.20;1.10;;;;;;;;;;6216708;23;20488;-68
2023/09/05 13:39:22;;;;;;;1.63;1.10;;;;;;;;;;6216963;23;20706;-68
2023/09/05 13:41:49;;;;;;;1.50;1.40;;;;;;;;;;6216809;23;20732;-68
2023/09/05 13:44:17;;;;;;;2.47;1.30;;;;;;;;;;6217068;23;20951;-68
2023/09/05 13:46:45;;;;;;;2.13;1.33;;;;;;;;;;6216830;23;20408;-68
2023/09/05 13:49:12;;;;;;;1.47;1.37;;;;;;;;;;6216095;23;20436;-68
2023/09/05 13:51:39;;;;;;;1.37;1.27;;;;;;;;;;6216866;23;20405;-68
2023/09/05 13:54:06;;;;;;;1.30;1.20;;;;;;;;;;6216348;23;20519;-68
2023/09/05 13:56:34;;;;;;;1.40;1.00;;;;;;;;;;6216845;23;20401;-68
2023/09/05 13:59:01;;;;;;;1.73;1.00;;;;;;;;;;6216778;23;20483;-68
2023/09/05 14:01:29;;;;;;;1.47;1.20;;;;;;;;;;6216754;23;20397;-68
2023/09/05 14:03:56;;;;;;;2.07;1.10;;;;;;;;;;6216846;23;20409;-68
2023/09/05 14:06:23;;;;;;;1.83;1.23;;;;;;;;;;6216773;23;20408;-67
2023/09/05 14:08:50;;;;;;;1.83;1.23;;;;;;;;;;6216602;23;20531;-68
2023/09/05 14:11:17;;;;;;;2.20;1.77;;;;;;;;;;6216711;23;20405;-68
2023/09/05 14:13:46;;;;;;;5.73;1.47;;;;;;;;;;6216764;23;20405;-68
2023/09/05 14:16:13;;;;;;;1.10;1.00;;;;;;;;;;6216642;23;20488;-67
2023/09/05 14:18:39;;;;;;;1.83;1.40;;;;;;;;;;6216278;23;20924;-68
2023/09/05 14:21:07;;;;;;;1.60;1.40;;;;;;;;;;6216738;23;20488;-68
2023/09/05 14:23:37;;;;;;;1.43;1.33;;;;;;;;;;6216201;23;20448;-68
2023/09/05 14:26:05;;;;;;;2.67;2.43;;;;;;;;;;6216791;23;20429;-68
2023/09/05 14:28:32;;;;;;;4.07;2.77;;;;;;;;;;6216350;23;20448;-68
2023/09/05 14:31:00;;;;;;;2.17;1.83;;;;;;;;;;6216449;23;20436;-68
2023/09/05 14:33:27;;;;;;;1.50;1.40;;;;;;;;;;6216079;23;20484;-68
2023/09/05 14:35:54;;;;;;;1.67;1.30;;;;;;;;;;6216362;23;20906;-68
2023/09/05 14:38:22;;;;;;;1.50;1.40;;;;;;;;;;6216326;23;20488;-68
2023/09/05 14:40:49;;;;;;;1.47;1.20;;;;;;;;;;6216438;23;20412;-68
2023/09/05 14:43:19;;;;;;;1.73;1.30;;;;;;;;;;6216366;23;20495;-68
2023/09/05 14:45:46;;;;;;;1.40;1.30;;;;;;;;;;6216150;23;20480;-68
2023/09/05 14:48:14;;;;;;;1.20;1.10;;;;;;;;;;6216274;23;20484;-68
2023/09/05 14:50:41;;;;;;;1.63;1.20;;;;;;;;;;6216214;23;20520;-68